Time;durP1;ratioP1;P1;durP2;ratioP2;P2;SDS_P1;SDS_P2;PMS_P1;PMS_P2;Temp;Humidity;BMP_temperature;BMP_pressure;BME280_temperature;BME280_humidity;BME280_pressure;Samples;Min_cycle;Max_cycle;Signal;HPM_P1;HPM_P2
2021/05/07 00:00:55;;;;;;;6.88;6.20;;;8.30;99.90;;;;;;2082965;28;20021;-69
2021/05/07 00:01:56;;;;;;;6.60;6.03;;;8.30;99.90;;;;;;2080035;28;20025;-69
2021/05/07 00:02:56;;;;;;;8.15;7.35;;;8.30;99.90;;;;;;2079192;28;20473;-69
2021/05/07 00:03:57;;;;;;;8.10;7.38;;;8.30;99.90;;;;;;2087844;28;20033;-69
2021/05/07 00:04:57;;;;;;;9.10;8.15;;;8.20;99.90;;;;;;2088962;28;20062;-69
2021/05/07 00:05:59;;;;;;;7.50;6.80;;;8.20;99.90;;;;;;2088735;28;20112;-69
2021/05/07 00:07:00;;;;;;;8.05;7.35;;;8.20;99.90;;;;;;2088930;28;20095;-69
2021/05/07 00:08:00;;;;;;;8.43;7.60;;;8.20;99.90;;;;;;2088722;28;20029;-69
2021/05/07 00:09:05;;;;;;;9.15;8.35;;;8.20;99.90;;;;;;2088740;28;20474;-69
2021/05/07 00:10:06;;;;;;;10.00;9.00;;;8.20;99.90;;;;;;2088407;28;20048;-69
2021/05/07 00:11:19;;;;;;;9.70;8.70;;;8.20;99.90;;;;;;2088906;28;20096;-69
2021/05/07 00:12:20;;;;;;;7.32;6.72;;;8.20;99.90;;;;;;2088016;28;20096;-69
2021/05/07 00:13:21;;;;;;;7.35;6.65;;;8.20;99.90;;;;;;2087846;28;20021;-69
2021/05/07 00:14:22;;;;;;;11.77;8.18;;;8.20;99.90;;;;;;2088024;28;20029;-69
2021/05/07 00:15:22;;;;;;;7.30;6.63;;;8.20;99.90;;;;;;2084227;28;20496;-69
2021/05/07 00:16:23;;;;;;;9.75;8.77;;;8.20;99.90;;;;;;2083909;28;20039;-69
2021/05/07 00:17:23;;;;;;;9.63;8.65;;;8.20;99.90;;;;;;2088704;28;20028;-70
2021/05/07 00:18:24;;;;;;;8.55;7.75;;;8.20;99.90;;;;;;2088118;28;20095;-69
2021/05/07 00:19:25;;;;;;;7.82;7.05;;;8.10;99.90;;;;;;2088844;28;20358;-69
2021/05/07 00:20:26;;;;;;;8.70;7.80;;;8.10;99.90;;;;;;2088259;28;20025;-69
2021/05/07 00:21:26;;;;;;;8.73;7.50;;;8.10;99.90;;;;;;2088627;28;20036;-69
2021/05/07 00:22:27;;;;;;;9.43;8.52;;;8.10;99.90;;;;;;2088151;28;20041;-69
2021/05/07 00:23:27;;;;;;;9.45;8.55;;;8.10;99.90;;;;;;2088740;28;20092;-69
2021/05/07 00:24:28;;;;;;;9.90;8.15;;;8.10;99.90;;;;;;2088279;28;20036;-69
2021/05/07 00:25:28;;;;;;;9.15;8.25;;;8.10;99.90;;;;;;2088765;28;20496;-69
2021/05/07 00:26:30;;;;;;;9.73;8.80;;;8.10;99.90;;;;;;2088540;28;20384;-69
2021/05/07 00:27:30;;;;;;;9.85;8.80;;;8.10;99.90;;;;;;2088733;28;20029;-69
2021/05/07 00:28:31;;;;;;;11.50;9.45;;;8.10;99.90;;;;;;2088151;28;20068;-69
2021/05/07 00:29:32;;;;;;;12.85;9.57;;;8.10;99.90;;;;;;2083260;28;20022;-69
2021/05/07 00:30:33;;;;;;;9.73;8.75;;;8.10;99.90;;;;;;2079958;28;20040;-69
2021/05/07 00:31:34;;;;;;;8.30;7.60;;;8.10;99.90;;;;;;2079434;28;20109;-69
2021/05/07 00:32:34;;;;;;;11.00;9.90;;;8.10;99.90;;;;;;2079018;28;20093;-69
2021/05/07 00:33:35;;;;;;;10.98;9.93;;;8.10;99.90;;;;;;2078534;28;20025;-69
2021/05/07 00:34:35;;;;;;;11.57;10.50;;;8.10;99.90;;;;;;2079816;28;20096;-69
2021/05/07 00:35:36;;;;;;;10.75;9.73;;;8.10;99.90;;;;;;2080147;28;20532;-69
2021/05/07 00:36:37;;;;;;;10.75;9.73;;;8.10;99.90;;;;;;2080676;28;20020;-69
2021/05/07 00:37:37;;;;;;;11.50;10.13;;;8.10;99.90;;;;;;2085481;28;20020;-69
2021/05/07 00:38:38;;;;;;;10.68;9.68;;;8.10;99.90;;;;;;2088329;28;20021;-69
2021/05/07 00:39:38;;;;;;;8.80;7.90;;;8.00;99.90;;;;;;2088418;28;20108;-69
2021/05/07 00:40:39;;;;;;;9.48;8.68;;;8.00;99.90;;;;;;2088414;28;20365;-69
2021/05/07 00:41:39;;;;;;;8.68;7.88;;;8.00;99.90;;;;;;2081606;28;20029;-69
2021/05/07 00:42:40;;;;;;;9.52;8.40;;;8.00;99.90;;;;;;2085863;28;20025;-69
2021/05/07 00:43:41;;;;;;;11.43;10.32;;;8.00;99.90;;;;;;2088339;28;20086;-69
2021/05/07 00:44:42;;;;;;;9.75;7.55;;;8.00;99.90;;;;;;2088764;28;20035;-69
2021/05/07 00:45:42;;;;;;;9.63;8.73;;;8.00;99.90;;;;;;2087308;28;20028;-69
2021/05/07 00:46:44;;;;;;;10.38;9.32;;;7.90;99.90;;;;;;2079859;28;20041;-69
2021/05/07 00:47:48;;;;;;;8.73;7.63;;;8.00;99.90;;;;;;2079517;28;20029;-68
2021/05/07 00:48:48;;;;;;;9.60;8.52;;;7.90;99.90;;;;;;2083420;28;20029;-69
2021/05/07 00:49:49;;;;;;;7.82;6.93;;;7.90;99.90;;;;;;2088519;28;20027;-69
2021/05/07 00:50:50;;;;;;;10.65;9.70;;;7.90;99.90;;;;;;2088129;28;20092;-69
2021/05/07 00:51:51;;;;;;;11.55;10.40;;;7.90;99.90;;;;;;2088356;28;20119;-69
2021/05/07 00:52:54;;;;;;;8.63;7.93;;;7.80;99.90;;;;;;2088015;28;20021;-69
2021/05/07 00:53:55;;;;;;;9.10;8.20;;;7.80;99.90;;;;;;2088281;28;20116;-69
2021/05/07 00:54:56;;;;;;;9.35;7.57;;;7.90;99.90;;;;;;2088527;28;20021;-69
2021/05/07 00:55:57;;;;;;;9.35;7.88;;;7.80;99.90;;;;;;2088489;28;20028;-69
2021/05/07 00:56:57;;;;;;;9.57;8.60;;;7.80;99.90;;;;;;2087921;28;20025;-69
2021/05/07 00:57:58;;;;;;;8.48;7.40;;;7.80;99.90;;;;;;2087549;28;20057;-69
2021/05/07 00:58:59;;;;;;;9.43;8.55;;;7.80;99.90;;;;;;2088291;28;20370;-69
2021/05/07 00:59:59;;;;;;;13.05;11.35;;;7.80;99.90;;;;;;2088410;28;20021;-69
2021/05/07 01:01:00;;;;;;;9.07;8.20;;;7.80;99.90;;;;;;2082149;28;20026;-68
2021/05/07 01:02:00;;;;;;;9.55;7.65;;;7.80;99.90;;;;;;2080053;28;20037;-68
2021/05/07 01:03:02;;;;;;;9.02;8.20;;;7.80;99.90;;;;;;2079858;28;20386;-69
2021/05/07 01:04:02;;;;;;;10.60;9.23;;;7.80;99.90;;;;;;2080200;28;20028;-68
2021/05/07 01:05:05;;;;;;;14.75;11.18;;;7.70;99.90;;;;;;2083448;28;20024;-68
2021/05/07 01:06:05;;;;;;;10.32;9.43;;;7.80;99.90;;;;;;2088326;28;20032;-68
2021/05/07 01:07:06;;;;;;;10.85;9.75;;;7.70;99.90;;;;;;2088253;28;20023;-68
2021/05/07 01:08:07;;;;;;;11.98;9.05;;;7.80;99.90;;;;;;2088026;28;20025;-68
2021/05/07 01:09:07;;;;;;;9.77;8.85;;;7.70;99.90;;;;;;2088226;28;20028;-68
2021/05/07 01:10:10;;;;;;;13.07;11.75;;;7.70;99.90;;;;;;2088133;28;20056;-68
2021/05/07 01:11:11;;;;;;;11.38;10.27;;;7.80;99.90;;;;;;2088129;28;20021;-69
2021/05/07 01:12:12;;;;;;;12.15;10.98;;;7.80;99.90;;;;;;2087825;28;20021;-68
2021/05/07 01:13:12;;;;;;;12.68;11.45;;;7.80;99.90;;;;;;2087759;28;20423;-69
2021/05/07 01:14:13;;;;;;;12.25;11.07;;;7.80;99.90;;;;;;2087743;28;20398;-68
2021/05/07 01:15:22;;;;;;;13.43;12.15;;;7.70;99.90;;;;;;2080546;28;20083;-68
2021/05/07 01:16:23;;;;;;;15.57;11.82;;;7.70;99.90;;;;;;2083188;28;20111;-69
2021/05/07 01:17:23;;;;;;;12.52;11.32;;;7.70;99.90;;;;;;2088115;28;20050;-69
2021/05/07 01:18:24;;;;;;;15.90;13.05;;;7.70;99.90;;;;;;2088113;28;20021;-69
2021/05/07 01:19:24;;;;;;;15.88;14.27;;;7.70;99.90;;;;;;2087831;28;20445;-68
2021/05/07 01:20:30;;;;;;;13.95;12.18;;;7.70;99.90;;;;;;2088099;28;20029;-69
2021/05/07 01:21:32;;;;;;;17.77;12.00;;;7.70;99.90;;;;;;2087994;28;20060;-68
2021/05/07 01:22:32;;;;;;;15.82;14.15;;;7.70;99.90;;;;;;2087552;28;20090;-69
2021/05/07 01:23:33;;;;;;;15.50;13.88;;;7.70;99.90;;;;;;2088304;28;20037;-69
2021/05/07 01:24:34;;;;;;;18.48;14.40;;;7.70;99.90;;;;;;2087859;28;20496;-69
2021/05/07 01:25:42;;;;;;;16.77;13.70;;;7.70;99.90;;;;;;2088187;28;20032;-69
2021/05/07 01:26:43;;;;;;;15.43;13.88;;;7.70;99.90;;;;;;2087398;28;20094;-69
2021/05/07 01:27:46;;;;;;;17.25;13.73;;;7.70;99.90;;;;;;2087667;28;20028;-69
2021/05/07 01:28:47;;;;;;;18.48;14.98;;;7.70;99.90;;;;;;2078229;28;20034;-69
2021/05/07 01:29:48;;;;;;;18.23;16.27;;;7.70;99.90;;;;;;2079494;28;20661;-69
2021/05/07 01:30:49;;;;;;;17.70;15.68;;;7.70;99.90;;;;;;2079679;28;20021;-68
2021/05/07 01:31:54;;;;;;;16.58;14.88;;;7.70;99.90;;;;;;2080264;28;20021;-69
2021/05/07 01:32:55;;;;;;;18.25;15.93;;;7.70;99.90;;;;;;2083540;28;20112;-69
2021/05/07 01:33:55;;;;;;;18.35;16.35;;;7.70;99.90;;;;;;2081094;28;20026;-69
2021/05/07 01:34:56;;;;;;;17.75;15.90;;;7.70;99.90;;;;;;2087772;28;20025;-69
2021/05/07 01:35:57;;;;;;;15.50;14.00;;;7.70;99.90;;;;;;2087983;28;20056;-69
2021/05/07 01:36:57;;;;;;;18.65;15.40;;;7.70;99.90;;;;;;2087925;28;20476;-69
2021/05/07 01:38:01;;;;;;;17.33;15.57;;;7.70;99.90;;;;;;2083645;28;20059;-69
2021/05/07 01:39:02;;;;;;;18.13;16.33;;;7.70;99.90;;;;;;2079055;28;20103;-69
2021/05/07 01:40:30;;;;;;;17.88;14.18;;;7.70;99.90;;;;;;2079465;28;20029;-68
2021/05/07 01:41:31;;;;;;;16.67;14.93;;;7.80;99.90;;;;;;2079524;28;20170;-69
2021/05/07 01:42:31;;;;;;;19.17;16.20;;;7.70;99.90;;;;;;2083411;28;20025;-69
2021/05/07 01:43:33;;;;;;;16.83;15.13;;;7.70;99.90;;;;;;2087306;28;20040;-69
2021/05/07 01:44:33;;;;;;;19.17;16.33;;;7.80;99.90;;;;;;2088150;28;20096;-69
2021/05/07 01:45:37;;;;;;;19.33;16.85;;;7.80;99.90;;;;;;2087099;28;20072;-69
2021/05/07 01:46:37;;;;;;;19.38;17.25;;;7.80;99.90;;;;;;2080127;28;20024;-69
2021/05/07 01:47:38;;;;;;;19.27;17.20;;;7.80;99.90;;;;;;2086623;28;20024;-68
2021/05/07 01:48:38;;;;;;;18.13;16.33;;;7.80;99.90;;;;;;2087866;28;20078;-68
2021/05/07 01:49:39;;;;;;;16.15;14.48;;;7.80;99.90;;;;;;2087873;28;20139;-69
2021/05/07 01:50:43;;;;;;;18.50;16.35;;;7.80;99.90;;;;;;2087817;28;20115;-69
2021/05/07 01:51:43;;;;;;;19.27;17.23;;;7.80;99.90;;;;;;2087809;28;20170;-69
2021/05/07 01:52:44;;;;;;;19.27;17.20;;;7.80;99.90;;;;;;2087362;28;20033;-68
2021/05/07 01:53:45;;;;;;;17.77;16.00;;;7.80;99.90;;;;;;2088049;28;20028;-68
2021/05/07 01:54:45;;;;;;;20.02;17.65;;;7.70;99.90;;;;;;2088260;28;20033;-69
2021/05/07 01:55:47;;;;;;;16.40;14.18;;;7.70;99.90;;;;;;2083362;28;20029;-69
2021/05/07 01:56:48;;;;;;;19.85;17.75;;;7.80;99.90;;;;;;2079997;28;20030;-68
2021/05/07 01:57:48;;;;;;;22.38;17.05;;;7.80;99.90;;;;;;2079314;28;20106;-69
2021/05/07 01:58:49;;;;;;;18.00;16.05;;;7.70;99.90;;;;;;2079527;28;20425;-69
2021/05/07 01:59:50;;;;;;;17.50;15.68;;;7.70;99.90;;;;;;2079873;28;20017;-68
2021/05/07 02:00:50;;;;;;;17.77;15.82;;;7.80;99.90;;;;;;2083183;28;20021;-68
2021/05/07 02:01:51;;;;;;;17.65;15.90;;;7.80;99.90;;;;;;2084271;28;20021;-68
2021/05/07 02:02:52;;;;;;;18.42;16.55;;;7.80;99.90;;;;;;2086106;28;20432;-69
2021/05/07 02:03:53;;;;;;;20.25;17.65;;;7.80;99.90;;;;;;2087658;28;20044;-69
2021/05/07 02:04:53;;;;;;;21.88;18.90;;;7.80;99.90;;;;;;2089194;28;20075;-68
2021/05/07 02:05:54;;;;;;;19.77;17.70;;;7.80;99.90;;;;;;2088806;28;20079;-68
2021/05/07 02:06:55;;;;;;;19.30;17.23;;;7.80;99.90;;;;;;2089190;28;20532;-68
2021/05/07 02:07:56;;;;;;;19.73;17.70;;;7.80;99.90;;;;;;2089218;28;20393;-68
2021/05/07 02:08:56;;;;;;;21.02;18.60;;;7.90;99.90;;;;;;2089045;28;20075;-68
2021/05/07 02:09:57;;;;;;;19.67;17.67;;;7.90;99.90;;;;;;2083019;28;20025;-69
2021/05/07 02:10:57;;;;;;;20.00;17.92;;;7.90;99.90;;;;;;2080959;28;20354;-69
2021/05/07 02:11:58;;;;;;;20.27;18.17;;;7.90;99.90;;;;;;2087515;28;20108;-69
2021/05/07 02:13:01;;;;;;;20.25;18.15;;;7.90;99.90;;;;;;2088464;28;20079;-69
2021/05/07 02:14:01;;;;;;;19.90;17.35;;;7.90;99.90;;;;;;2089321;28;20017;-68
2021/05/07 02:15:05;;;;;;;21.95;19.65;;;7.90;99.90;;;;;;2089067;28;20033;-68
2021/05/07 02:16:06;;;;;;;21.75;18.38;;;7.90;99.90;;;;;;2088269;28;20423;-68
2021/05/07 02:17:06;;;;;;;20.70;18.60;;;7.90;99.90;;;;;;2074563;28;20022;-69
2021/05/07 02:18:08;;;;;;;20.58;18.58;;;7.90;99.90;;;;;;2081066;28;20108;-69
2021/05/07 02:19:09;;;;;;;20.60;18.35;;;7.90;99.90;;;;;;2081531;28;20028;-69
2021/05/07 02:20:13;;;;;;;20.27;18.15;;;7.90;99.90;;;;;;2084007;28;20036;-68
2021/05/07 02:21:14;;;;;;;20.80;18.58;;;7.90;99.90;;;;;;2087092;28;20041;-68
2021/05/07 02:22:14;;;;;;;19.45;17.27;;;7.90;99.90;;;;;;2080480;28;20344;-68
2021/05/07 02:23:15;;;;;;;21.95;19.60;;;7.90;99.90;;;;;;2086513;28;20032;-69
2021/05/07 02:24:16;;;;;;;23.85;19.77;;;7.90;99.90;;;;;;2080704;28;20029;-69
2021/05/07 02:25:19;;;;;;;22.00;19.70;;;7.90;99.90;;;;;;2080636;28;20057;-68
2021/05/07 02:26:20;;;;;;;19.83;17.98;;;7.90;99.90;;;;;;2083063;28;20033;-68
2021/05/07 02:27:20;;;;;;;23.63;20.42;;;7.90;99.90;;;;;;2089120;28;20420;-69
2021/05/07 02:28:21;;;;;;;20.27;18.23;;;7.90;99.90;;;;;;2089412;28;20013;-69
2021/05/07 02:29:21;;;;;;;21.75;19.55;;;7.90;99.90;;;;;;2084970;28;20057;-69
2021/05/07 02:30:27;;;;;;;23.27;20.77;;;8.00;99.90;;;;;;2081000;28;20079;-69
2021/05/07 02:31:28;;;;;;;20.98;18.95;;;8.00;99.90;;;;;;2088507;28;20480;-69
2021/05/07 02:32:29;;;;;;;21.77;19.52;;;8.00;99.90;;;;;;2088297;28;20365;-68
2021/05/07 02:33:29;;;;;;;22.20;20.00;;;8.00;99.90;;;;;;2088815;28;20129;-68
2021/05/07 02:34:30;;;;;;;22.67;20.40;;;8.00;99.90;;;;;;2083527;28;20017;-68
2021/05/07 02:35:30;;;;;;;23.45;21.05;;;8.00;99.90;;;;;;2081715;28;20025;-68
2021/05/07 02:36:31;;;;;;;22.25;19.85;;;8.00;99.90;;;;;;2089235;28;20017;-68
2021/05/07 02:37:32;;;;;;;23.40;20.55;;;8.00;99.90;;;;;;2085548;28;20076;-69
2021/05/07 02:38:34;;;;;;;22.52;20.25;;;8.00;99.90;;;;;;2081271;28;20056;-69
2021/05/07 02:39:34;;;;;;;21.45;19.25;;;8.00;99.90;;;;;;2082073;28;20037;-69
2021/05/07 02:40:35;;;;;;;21.65;19.38;;;8.00;99.90;;;;;;2085329;28;20036;-68
2021/05/07 02:41:36;;;;;;;19.48;17.67;;;8.00;99.90;;;;;;2090532;28;20059;-68
2021/05/07 02:42:37;;;;;;;22.63;20.30;;;8.00;99.90;;;;;;2090182;28;20060;-68
2021/05/07 02:43:38;;;;;;;22.27;20.05;;;8.00;99.90;;;;;;2090602;28;20029;-69
2021/05/07 02:44:38;;;;;;;21.17;19.02;;;8.00;99.90;;;;;;2090843;28;20060;-69
2021/05/07 02:45:39;;;;;;;23.10;20.80;;;8.00;99.90;;;;;;2090460;28;20525;-68
2021/05/07 02:46:40;;;;;;;22.20;19.83;;;8.00;99.90;;;;;;2083874;28;20034;-68
2021/05/07 02:47:41;;;;;;;22.60;20.40;;;8.00;99.90;;;;;;2082631;28;20026;-68
2021/05/07 02:48:42;;;;;;;18.30;16.40;;;8.00;99.90;;;;;;2082398;28;20057;-68
2021/05/07 02:49:44;;;;;;;21.30;19.20;;;8.10;99.90;;;;;;2082208;28;20115;-68
2021/05/07 02:50:44;;;;;;;23.30;20.90;;;8.00;99.90;;;;;;2082341;28;20100;-69
2021/05/07 02:51:45;;;;;;;21.83;19.52;;;8.10;99.90;;;;;;2081964;28;20057;-70
2021/05/07 02:52:45;;;;;;;21.45;19.42;;;8.10;99.90;;;;;;2081874;28;20026;-69
2021/05/07 02:53:46;;;;;;;23.63;21.15;;;8.10;99.90;;;;;;2087262;28;20029;-68
2021/05/07 02:54:46;;;;;;;22.30;19.85;;;8.10;99.90;;;;;;2090405;28;20021;-69
2021/05/07 02:55:47;;;;;;;23.05;20.50;;;8.10;99.90;;;;;;2090380;28;20426;-69
2021/05/07 02:56:48;;;;;;;22.67;20.27;;;8.10;99.90;;;;;;2090613;28;20028;-69
2021/05/07 02:57:48;;;;;;;22.90;20.60;;;8.10;99.90;;;;;;2090726;28;20029;-69
2021/05/07 02:58:49;;;;;;;21.45;18.38;;;8.10;99.90;;;;;;2090384;28;20078;-69
2021/05/07 02:59:49;;;;;;;23.30;20.92;;;8.10;99.90;;;;;;2090447;28;20021;-69
2021/05/07 03:00:50;;;;;;;24.27;21.67;;;8.10;99.90;;;;;;2085388;28;20025;-69
2021/05/07 03:01:51;;;;;;;23.55;21.10;;;8.10;99.90;;;;;;2086287;28;20666;-69
2021/05/07 03:02:52;;;;;;;22.67;19.08;;;8.10;99.90;;;;;;2089181;28;20025;-69
2021/05/07 03:03:52;;;;;;;24.55;21.63;;;8.10;99.90;;;;;;2089198;28;20029;-69
2021/05/07 03:04:53;;;;;;;22.45;18.08;;;8.10;99.90;;;;;;2089417;28;20052;-69
2021/05/07 03:05:53;;;;;;;23.13;20.40;;;8.10;99.90;;;;;;2082593;28;20022;-69
2021/05/07 03:06:54;;;;;;;22.02;19.58;;;8.10;99.90;;;;;;2081377;28;20053;-69
2021/05/07 03:07:55;;;;;;;22.08;19.05;;;8.10;99.90;;;;;;2082775;28;20024;-69
2021/05/07 03:08:55;;;;;;;22.63;20.33;;;8.10;99.90;;;;;;2089595;28;20132;-69
2021/05/07 03:09:56;;;;;;;20.27;17.27;;;8.10;99.90;;;;;;2089399;28;20422;-69
2021/05/07 03:10:56;;;;;;;22.52;20.23;;;8.10;99.90;;;;;;2088101;28;20028;-69
2021/05/07 03:11:57;;;;;;;23.08;20.63;;;8.10;99.90;;;;;;2089237;28;20088;-69
2021/05/07 03:12:58;;;;;;;22.13;19.67;;;8.10;99.90;;;;;;2087975;28;20032;-69
2021/05/07 03:13:58;;;;;;;23.17;20.73;;;8.10;99.90;;;;;;2088551;28;20025;-69
2021/05/07 03:14:59;;;;;;;23.42;20.83;;;8.10;99.90;;;;;;2089098;28;20508;-69
2021/05/07 03:16:00;;;;;;;23.33;20.90;;;8.10;99.90;;;;;;2089200;28;20021;-69
2021/05/07 03:17:00;;;;;;;20.50;18.30;;;8.10;99.90;;;;;;2089059;28;20143;-69
2021/05/07 03:18:01;;;;;;;21.23;18.98;;;8.10;99.90;;;;;;2089115;28;20025;-69
2021/05/07 03:19:03;;;;;;;22.17;19.55;;;8.00;99.90;;;;;;2089123;28;20086;-69
2021/05/07 03:20:05;;;;;;;22.92;19.80;;;8.00;99.90;;;;;;2080958;28;20089;-69
2021/05/07 03:21:06;;;;;;;23.13;20.70;;;8.10;99.90;;;;;;2083426;28;20060;-68
2021/05/07 03:22:06;;;;;;;22.23;19.92;;;8.00;99.90;;;;;;2089111;28;20028;-69
2021/05/07 03:23:07;;;;;;;24.05;20.58;;;8.00;99.90;;;;;;2087907;28;20025;-69
2021/05/07 03:24:08;;;;;;;21.55;19.35;;;8.00;99.90;;;;;;2087681;28;20021;-68
2021/05/07 03:25:09;;;;;;;23.83;20.98;;;8.00;99.90;;;;;;2080379;28;20057;-68
2021/05/07 03:26:10;;;;;;;23.15;20.75;;;8.00;99.90;;;;;;2080653;28;20128;-68
2021/05/07 03:27:10;;;;;;;20.35;18.45;;;8.00;99.90;;;;;;2081088;28;20018;-69
2021/05/07 03:28:11;;;;;;;23.25;20.90;;;8.00;99.90;;;;;;2080662;28;20022;-68
2021/05/07 03:29:12;;;;;;;23.05;20.35;;;8.00;99.90;;;;;;2078082;28;20033;-68
2021/05/07 03:30:13;;;;;;;22.15;19.88;;;8.00;99.90;;;;;;2080836;28;20037;-68
2021/05/07 03:31:13;;;;;;;19.50;17.42;;;8.00;99.90;;;;;;2082577;28;20049;-68
2021/05/07 03:32:14;;;;;;;23.30;20.92;;;8.00;99.90;;;;;;2080501;28;20022;-68
2021/05/07 03:33:15;;;;;;;21.88;19.58;;;8.00;99.90;;;;;;2087535;28;20032;-68
2021/05/07 03:34:15;;;;;;;22.45;20.00;;;8.00;99.90;;;;;;2080979;28;20028;-69
2021/05/07 03:35:16;;;;;;;22.50;20.30;;;8.00;99.90;;;;;;2088003;28;20029;-69
2021/05/07 03:36:16;;;;;;;26.63;21.70;;;8.00;99.90;;;;;;2087944;28;20095;-68
2021/05/07 03:37:17;;;;;;;22.17;19.88;;;8.00;99.90;;;;;;2083310;28;20143;-68
2021/05/07 03:38:18;;;;;;;22.92;20.52;;;7.90;99.90;;;;;;2085554;28;20021;-68
2021/05/07 03:39:18;;;;;;;24.05;21.60;;;8.00;99.90;;;;;;2082411;28;20354;-69
2021/05/07 03:40:19;;;;;;;25.33;21.55;;;8.00;99.90;;;;;;2080827;28;20032;-69
2021/05/07 03:41:20;;;;;;;23.92;21.48;;;8.00;99.90;;;;;;2080862;28;20033;-69
2021/05/07 03:42:20;;;;;;;18.48;16.55;;;7.90;99.90;;;;;;2084503;28;20029;-68
2021/05/07 03:43:21;;;;;;;15.20;13.65;;;7.90;99.90;;;;;;2088982;28;20094;-69
2021/05/07 03:44:22;;;;;;;14.75;13.25;;;7.90;99.90;;;;;;2088752;28;20029;-69
2021/05/07 03:45:22;;;;;;;22.13;19.92;;;7.90;99.90;;;;;;2089163;28;20090;-69
2021/05/07 03:46:23;;;;;;;20.00;17.23;;;7.90;99.90;;;;;;2088497;28;20052;-69
2021/05/07 03:47:23;;;;;;;22.33;19.70;;;7.90;99.90;;;;;;2086164;28;20033;-68
2021/05/07 03:48:24;;;;;;;22.17;19.92;;;7.90;99.90;;;;;;2081122;28;20029;-69
2021/05/07 03:49:25;;;;;;;20.45;17.52;;;7.90;99.90;;;;;;2088902;28;20469;-69
2021/05/07 03:50:25;;;;;;;22.40;19.85;;;7.90;99.90;;;;;;2087694;28;20056;-69
2021/05/07 03:51:26;;;;;;;18.67;16.75;;;7.90;99.90;;;;;;2088920;28;20028;-69
2021/05/07 03:52:26;;;;;;;20.02;18.02;;;7.90;99.90;;;;;;2088126;28;20384;-69
2021/05/07 03:53:27;;;;;;;21.88;19.67;;;7.90;99.90;;;;;;2088978;28;20428;-69
2021/05/07 03:54:29;;;;;;;20.02;17.30;;;7.90;99.90;;;;;;2088817;28;20040;-68
2021/05/07 03:55:29;;;;;;;22.23;19.80;;;7.90;99.90;;;;;;2089079;28;20040;-68
2021/05/07 03:56:30;;;;;;;23.27;18.33;;;7.90;99.90;;;;;;2088873;28;20496;-69
2021/05/07 03:57:30;;;;;;;17.77;16.02;;;7.90;99.90;;;;;;2088533;28;20028;-69
2021/05/07 03:58:31;;;;;;;21.20;18.63;;;7.90;99.90;;;;;;2088717;28;20093;-69
2021/05/07 03:59:32;;;;;;;17.63;15.82;;;7.90;99.90;;;;;;2088794;28;20110;-68
2021/05/07 04:00:33;;;;;;;20.02;18.02;;;7.80;99.90;;;;;;2086305;28;20035;-68
2021/05/07 04:01:33;;;;;;;19.65;17.58;;;7.80;99.90;;;;;;2080319;28;20068;-68
2021/05/07 04:02:34;;;;;;;20.42;18.33;;;7.80;99.90;;;;;;2079916;28;20124;-68
2021/05/07 04:03:35;;;;;;;22.15;18.48;;;7.80;99.90;;;;;;2086274;28;20028;-68
2021/05/07 04:04:37;;;;;;;20.20;18.17;;;7.80;99.90;;;;;;2089139;28;20021;-69
2021/05/07 04:05:40;;;;;;;21.65;19.27;;;7.80;99.90;;;;;;2088678;28;20087;-69
2021/05/07 04:06:40;;;;;;;20.58;16.98;;;7.80;99.90;;;;;;2088922;28;20497;-69
2021/05/07 04:07:41;;;;;;;20.10;17.98;;;7.80;99.90;;;;;;2088636;28;20366;-69
2021/05/07 04:08:43;;;;;;;18.00;16.15;;;7.70;99.90;;;;;;2088593;28;20033;-69
2021/05/07 04:09:56;;;;;;;17.75;15.95;;;7.70;99.90;;;;;;2088580;28;20365;-68
2021/05/07 04:11:04;;;;;;;17.88;15.95;;;7.70;99.90;;;;;;2088559;28;20033;-68
2021/05/07 04:12:17;;;;;;;21.80;19.45;;;7.70;99.90;;;;;;2088855;28;20024;-68
2021/05/07 04:14:30;;;;;;;22.67;19.92;;;7.70;99.90;;;;;;2089156;28;20104;-68
2021/05/07 04:15:31;;;;;;;21.70;19.50;;;7.60;99.90;;;;;;2083849;28;20034;-68
2021/05/07 04:16:31;;;;;;;23.25;20.95;;;7.60;99.90;;;;;;2080415;28;20057;-68
2021/05/07 04:17:32;;;;;;;18.80;16.52;;;7.60;99.90;;;;;;2081587;28;20060;-68
2021/05/07 04:18:34;;;;;;;19.75;17.65;;;7.60;99.90;;;;;;2089133;28;20040;-68
2021/05/07 04:19:35;;;;;;;21.83;18.60;;;7.60;99.90;;;;;;2088669;28;20029;-68
2021/05/07 04:20:35;;;;;;;23.50;20.98;;;7.60;99.90;;;;;;2088910;28;20087;-68
2021/05/07 04:21:36;;;;;;;22.60;20.40;;;7.60;99.90;;;;;;2088256;28;20037;-68
2021/05/07 04:22:37;;;;;;;24.40;21.63;;;7.60;99.90;;;;;;2088113;28;20056;-68
2021/05/07 04:23:37;;;;;;;20.48;18.35;;;7.60;99.90;;;;;;2088180;28;20021;-68
2021/05/07 04:24:38;;;;;;;23.17;19.40;;;7.60;99.90;;;;;;2088474;28;20032;-68
2021/05/07 04:25:39;;;;;;;18.48;16.42;;;7.50;99.90;;;;;;2084068;28;20052;-68
2021/05/07 04:26:40;;;;;;;19.83;17.73;;;7.50;99.90;;;;;;2088858;28;20119;-69
2021/05/07 04:27:41;;;;;;;25.60;19.58;;;7.50;99.90;;;;;;2088543;28;20021;-68
2021/05/07 04:28:41;;;;;;;19.25;17.20;;;7.50;99.90;;;;;;2089039;28;20520;-68
2021/05/07 04:29:42;;;;;;;21.60;19.48;;;7.50;99.90;;;;;;2081535;28;20091;-69
2021/05/07 04:30:43;;;;;;;19.48;17.52;;;7.50;99.90;;;;;;2080175;28;20041;-69
2021/05/07 04:31:43;;;;;;;21.85;18.60;;;7.50;99.90;;;;;;2080171;28;20732;-68
2021/05/07 04:32:44;;;;;;;18.50;16.60;;;7.50;99.90;;;;;;2084583;28;20025;-68
2021/05/07 04:33:44;;;;;;;21.85;17.20;;;7.50;99.90;;;;;;2088956;28;20032;-68
2021/05/07 04:34:45;;;;;;;20.83;18.75;;;7.50;99.90;;;;;;2082635;28;20116;-68
2021/05/07 04:35:45;;;;;;;22.10;18.85;;;7.50;99.90;;;;;;2082976;28;20067;-68
2021/05/07 04:36:46;;;;;;;24.80;20.70;;;7.50;99.90;;;;;;2076723;28;20025;-69
2021/05/07 04:37:46;;;;;;;22.50;20.30;;;7.50;99.90;;;;;;2077105;28;20030;-68
2021/05/07 04:38:47;;;;;;;17.88;15.73;;;7.50;99.90;;;;;;2079775;28;20037;-68
2021/05/07 04:39:47;;;;;;;19.42;17.42;;;7.50;99.90;;;;;;2074556;28;20025;-68
2021/05/07 04:40:48;;;;;;;19.05;17.10;;;7.50;99.90;;;;;;2080618;28;20045;-68
2021/05/07 04:41:49;;;;;;;20.33;18.13;;;7.50;99.90;;;;;;2077373;28;20076;-68
2021/05/07 04:42:49;;;;;;;22.63;18.83;;;7.50;99.90;;;;;;2076647;28;20450;-68
2021/05/07 04:43:51;;;;;;;17.33;15.55;;;7.50;99.90;;;;;;2079799;28;20025;-68
2021/05/07 04:44:51;;;;;;;25.33;20.85;;;7.50;99.90;;;;;;2077425;28;20021;-68
2021/05/07 04:45:52;;;;;;;23.13;20.73;;;7.50;99.90;;;;;;2076032;28;20125;-69
2021/05/07 04:46:53;;;;;;;20.50;18.42;;;7.50;99.90;;;;;;2079948;28;20026;-69
2021/05/07 04:47:53;;;;;;;24.15;20.95;;;7.50;99.90;;;;;;2076296;28;20025;-68
2021/05/07 04:48:54;;;;;;;23.33;19.83;;;7.50;99.90;;;;;;2076436;28;20057;-68
2021/05/07 04:49:55;;;;;;;23.95;20.85;;;7.50;99.90;;;;;;2075271;28;20029;-68
2021/05/07 04:50:55;;;;;;;23.83;21.40;;;7.50;99.90;;;;;;2074737;28;20543;-69
2021/05/07 04:51:56;;;;;;;21.23;18.98;;;7.60;99.90;;;;;;2078068;28;20113;-68
2021/05/07 04:52:56;;;;;;;22.52;17.90;;;7.60;99.90;;;;;;2073686;28;20061;-69
2021/05/07 04:53:59;;;;;;;23.92;21.27;;;7.60;99.90;;;;;;2078702;28;20037;-68
2021/05/07 04:55:00;;;;;;;25.98;23.15;;;7.60;99.90;;;;;;2075341;28;20022;-69
2021/05/07 04:56:00;;;;;;;23.27;20.88;;;7.60;99.90;;;;;;2076071;28;20080;-68
2021/05/07 04:57:01;;;;;;;25.50;22.65;;;7.60;99.90;;;;;;2080290;28;20359;-69
2021/05/07 04:58:02;;;;;;;23.17;20.88;;;7.70;99.90;;;;;;2075191;28;20029;-69
2021/05/07 04:59:03;;;;;;;22.35;19.95;;;7.70;99.90;;;;;;2074186;28;20124;-69
2021/05/07 05:00:04;;;;;;;21.50;19.17;;;7.70;99.90;;;;;;2076544;28;20088;-69
2021/05/07 05:01:05;;;;;;;21.42;19.25;;;7.80;99.90;;;;;;2078548;28;20018;-69
2021/05/07 05:02:05;;;;;;;23.23;20.27;;;7.80;99.90;;;;;;2080241;28;20029;-69
2021/05/07 05:03:06;;;;;;;26.63;21.13;;;7.90;99.90;;;;;;2076525;28;20034;-69
2021/05/07 05:04:06;;;;;;;22.77;19.45;;;7.90;99.90;;;;;;2079590;28;20040;-69
2021/05/07 05:05:07;;;;;;;22.38;19.35;;;8.00;99.90;;;;;;2082570;28;20033;-69
2021/05/07 05:06:08;;;;;;;24.63;22.13;;;8.00;99.90;;;;;;2082691;28;20025;-69
2021/05/07 05:07:09;;;;;;;23.40;21.10;;;8.10;99.90;;;;;;2082089;28;20029;-69
2021/05/07 05:08:09;;;;;;;21.52;18.42;;;8.10;99.90;;;;;;2082456;28;20029;-69
2021/05/07 05:09:10;;;;;;;23.75;20.77;;;8.20;99.90;;;;;;2084254;28;20017;-69
2021/05/07 05:10:11;;;;;;;22.50;20.05;;;8.20;99.90;;;;;;2082082;28;20468;-69
2021/05/07 05:11:11;;;;;;;23.70;21.20;;;8.30;99.90;;;;;;2085277;28;20013;-69
2021/05/07 05:12:12;;;;;;;22.52;18.33;;;8.30;99.90;;;;;;2078566;28;20484;-69
2021/05/07 05:13:12;;;;;;;25.30;22.23;;;8.30;99.90;;;;;;2082755;28;20021;-69
2021/05/07 05:14:13;;;;;;;25.85;21.67;;;8.40;99.90;;;;;;2081470;28;20037;-69
2021/05/07 05:15:14;;;;;;;24.42;20.27;;;8.40;99.90;;;;;;2081415;28;20451;-68
2021/05/07 05:16:15;;;;;;;24.25;21.45;;;8.40;99.90;;;;;;2081825;28;20045;-69
2021/05/07 05:17:15;;;;;;;24.05;21.48;;;8.50;99.90;;;;;;2080392;28;20075;-69